Time;durP1;ratioP1;P1;durP2;ratioP2;P2;SDS_P1;SDS_P2;PMS_P1;PMS_P2;Temp;Humidity;BMP_temperature;BMP_pressure;BME280_temperature;BME280_humidity;BME280_pressure;Samples;Min_cycle;Max_cycle;Signal;HPM_P1;HPM_P2
2023/12/24 00:01:19;;;;;;;3.15;3.00;;;12.50;99.90;;;;;;5068189;28;20040;-91
2023/12/24 00:04:03;;;;;;;2.75;2.65;;;12.50;99.90;;;;;;5067046;28;20042;-96
2023/12/24 00:06:29;;;;;;;3.33;3.15;;;12.70;99.90;;;;;;5071261;28;20195;-88
2023/12/24 00:08:54;;;;;;;2.72;2.63;;;12.90;99.90;;;;;;5071316;28;20040;-90
2023/12/24 00:11:20;;;;;;;2.75;2.65;;;12.90;99.90;;;;;;5068106;28;20378;-92
2023/12/24 00:13:46;;;;;;;3.35;3.15;;;12.80;99.90;;;;;;5066224;28;20040;-89
2023/12/24 00:16:17;;;;;;;3.58;3.38;;;12.40;99.90;;;;;;5071829;28;20043;-90
2023/12/24 00:18:43;;;;;;;2.85;2.75;;;12.50;99.90;;;;;;5069120;28;20075;-88
2023/12/24 00:21:12;;;;;;;3.58;3.38;;;12.50;99.90;;;;;;5085969;28;20493;-90
2023/12/24 00:23:37;;;;;;;3.38;3.17;;;12.40;99.90;;;;;;5069890;28;20740;-90
2023/12/24 00:26:06;;;;;;;3.65;3.45;;;12.80;99.90;;;;;;5069695;28;20067;-93
2023/12/24 00:28:32;;;;;;;3.38;3.17;;;12.80;99.90;;;;;;5069855;28;20048;-89
2023/12/24 00:31:00;;;;;;;2.75;2.65;;;12.40;99.90;;;;;;5069142;28;20063;-92
2023/12/24 00:33:35;;;;;;;2.72;2.63;;;12.50;99.90;;;;;;5067773;28;20043;-95
2023/12/24 00:36:01;;;;;;;2.85;2.75;;;12.40;99.90;;;;;;5069086;28;20036;-89
2023/12/24 00:38:27;;;;;;;3.38;3.17;;;12.80;99.90;;;;;;5070012;28;20040;-92
2023/12/24 00:40:55;;;;;;;3.67;3.47;;;12.50;99.90;;;;;;5073294;28;20043;-92
2023/12/24 00:43:21;;;;;;;3.38;3.17;;;12.80;99.90;;;;;;5066906;28;20044;-93
2023/12/24 00:45:47;;;;;;;3.75;3.55;;;12.80;99.90;;;;;;5069896;28;20040;-91
2023/12/24 00:48:16;;;;;;;3.28;3.08;;;12.90;99.90;;;;;;5088085;28;20048;-93
2023/12/24 00:50:42;;;;;;;3.03;2.92;;;12.90;99.90;;;;;;5076212;28;20349;-89
2023/12/24 00:53:08;;;;;;;3.47;3.28;;;12.80;99.90;;;;;;5072371;28;20118;-89
2023/12/24 00:55:33;;;;;;;2.67;2.58;;;12.90;99.90;;;;;;5072147;28;20043;-91
2023/12/24 00:57:59;;;;;;;3.38;3.17;;;12.70;99.90;;;;;;5075899;28;20036;-89
2023/12/24 01:00:28;;;;;;;2.92;2.83;;;12.60;99.90;;;;;;5091810;28;20116;-90
2023/12/24 01:02:54;;;;;;;3.67;3.47;;;12.60;99.90;;;;;;5073402;28;20044;-90
2023/12/24 01:05:20;;;;;;;3.75;3.55;;;12.70;99.90;;;;;;5070290;28;20055;-88
2023/12/24 01:07:49;;;;;;;3.35;3.17;;;12.70;99.90;;;;;;5072560;28;20046;-96
2023/12/24 01:10:17;;;;;;;3.55;3.35;;;12.60;99.90;;;;;;5072744;28;20036;-94
2023/12/24 01:12:43;;;;;;;3.55;3.35;;;13.00;99.90;;;;;;5071988;28;20048;-94
2023/12/24 01:15:12;;;;;;;2.92;2.83;;;12.60;99.90;;;;;;5075499;28;20099;-91
2023/12/24 01:17:37;;;;;;;3.58;3.38;;;12.90;99.90;;;;;;5074936;28;20051;-94
2023/12/24 01:20:13;;;;;;;2.85;2.75;;;12.80;99.90;;;;;;5079631;28;20036;-93
2023/12/24 01:22:39;;;;;;;2.83;2.72;;;12.90;99.90;;;;;;5074851;28;20116;-91
2023/12/24 01:25:24;;;;;;;3.65;3.45;;;12.50;99.90;;;;;;5077517;28;20055;-94
2023/12/24 01:27:52;;;;;;;3.47;3.28;;;13.00;99.90;;;;;;5072285;28;20081;-90
2023/12/24 01:30:18;;;;;;;3.25;3.08;;;13.00;99.90;;;;;;5073261;28;20047;-93
2023/12/24 01:32:47;;;;;;;2.85;2.75;;;12.70;99.90;;;;;;5074937;28;20092;-95
2023/12/24 01:35:13;;;;;;;3.40;3.20;;;13.00;99.90;;;;;;5069700;28;20048;-88
2023/12/24 01:37:41;;;;;;;2.65;2.55;;;13.10;99.90;;;;;;5087918;28;20165;-93
2023/12/24 01:40:16;;;;;;;2.80;2.70;;;12.60;99.90;;;;;;5075100;28;20070;-93
2023/12/24 01:42:44;;;;;;;3.50;3.30;;;13.00;99.90;;;;;;5072928;28;20067;-91
2023/12/24 01:45:12;;;;;;;3.45;3.25;;;13.00;99.90;;;;;;5069595;28;20071;-90
2023/12/24 01:47:42;;;;;;;2.72;2.63;;;13.00;99.90;;;;;;5071913;28;20048;-92
2023/12/24 01:50:09;;;;;;;3.55;3.35;;;13.10;99.90;;;;;;5071584;28;20048;-92
2023/12/24 01:52:38;;;;;;;3.30;3.10;;;12.90;99.90;;;;;;5073826;28;20079;-95
2023/12/24 01:55:07;;;;;;;2.78;2.67;;;12.60;99.90;;;;;;5071512;28;20035;-92
2023/12/24 01:57:34;;;;;;;2.75;2.65;;;13.00;99.90;;;;;;5074018;28;20047;-93
2023/12/24 02:00:03;;;;;;;3.30;3.10;;;12.60;99.90;;;;;;5074141;28;20039;-94
2023/12/24 02:02:32;;;;;;;3.47;3.28;;;12.70;99.90;;;;;;5071114;28;20484;-90
2023/12/24 02:05:02;;;;;;;3.63;3.42;;;13.10;99.90;;;;;;5075068;28;20040;-93
2023/12/24 02:07:33;;;;;;;3.38;3.17;;;13.00;99.90;;;;;;5074824;28;20048;-94
2023/12/24 02:10:00;;;;;;;3.22;3.08;;;12.70;99.90;;;;;;5073403;28;20058;-95
2023/12/24 02:12:29;;;;;;;3.65;3.45;;;12.70;99.90;;;;;;5073410;28;20507;-93
2023/12/24 02:14:55;;;;;;;3.65;3.45;;;13.10;99.90;;;;;;5071460;28;20044;-93
2023/12/24 02:17:28;;;;;;;3.40;3.20;;;13.10;99.90;;;;;;5075462;28;20039;-94
2023/12/24 02:19:54;;;;;;;3.45;3.25;;;12.60;99.90;;;;;;5076350;28;20044;-87
2023/12/24 02:22:20;;;;;;;3.40;3.20;;;13.10;99.90;;;;;;5075664;28;20040;-90
2023/12/24 02:24:46;;;;;;;3.40;3.20;;;13.10;99.90;;;;;;5075327;28;20152;-93
2023/12/24 02:27:42;;;;;;;3.38;3.17;;;12.90;99.90;;;;;;5078536;28;20036;-91
2023/12/24 02:30:22;;;;;;;3.72;3.53;;;12.60;99.90;;;;;;5078677;28;20074;-87
2023/12/24 02:32:54;;;;;;;3.55;3.35;;;12.90;99.90;;;;;;5074869;28;20561;-90
2023/12/24 02:35:24;;;;;;;3.60;3.40;;;13.00;99.90;;;;;;5072342;28;20084;-91
2023/12/24 02:37:50;;;;;;;3.60;3.40;;;13.00;99.90;;;;;;5074865;28;20454;-91
2023/12/24 02:40:16;;;;;;;3.30;3.10;;;13.10;99.90;;;;;;5077938;28;20074;-91
2023/12/24 02:42:53;;;;;;;3.38;3.17;;;12.60;99.90;;;;;;5076218;28;20104;-93
2023/12/24 02:45:22;;;;;;;3.60;3.40;;;13.10;99.90;;;;;;5077279;28;20042;-90
2023/12/24 02:47:51;;;;;;;2.72;2.63;;;13.20;99.90;;;;;;5072454;28;20083;-94
2023/12/24 02:50:18;;;;;;;2.72;2.63;;;12.80;99.90;;;;;;5074864;28;20047;-93
2023/12/24 02:53:01;;;;;;;2.92;2.83;;;13.10;99.90;;;;;;5076035;28;20051;-93
2023/12/24 02:55:27;;;;;;;3.75;3.55;;;12.90;99.90;;;;;;5072620;28;20266;-92
2023/12/24 02:57:55;;;;;;;3.50;3.30;;;12.90;99.90;;;;;;5073695;28;20055;-90
2023/12/24 03:00:21;;;;;;;2.83;2.72;;;13.10;99.90;;;;;;5073593;28;20044;-92
2023/12/24 03:02:47;;;;;;;3.58;3.38;;;13.20;99.90;;;;;;5069401;28;20043;-91
2023/12/24 03:05:16;;;;;;;3.50;3.30;;;12.60;99.90;;;;;;5093228;27;20050;-95
2023/12/24 03:07:48;;;;;;;3.50;3.30;;;13.30;99.90;;;;;;5075570;28;20039;-93
2023/12/24 03:10:14;;;;;;;3.30;3.10;;;13.00;99.90;;;;;;5090085;27;20035;-90
2023/12/24 03:12:42;;;;;;;3.45;3.25;;;13.10;99.90;;;;;;5090155;28;20044;-92
2023/12/24 03:15:14;;;;;;;3.60;3.40;;;12.80;99.90;;;;;;5091415;28;20036;-96
2023/12/24 03:17:43;;;;;;;3.75;3.55;;;13.00;99.90;;;;;;5072518;28;20036;-93
2023/12/24 03:20:09;;;;;;;3.47;3.28;;;13.20;99.90;;;;;;5088883;28;20082;-92
2023/12/24 03:22:35;;;;;;;2.80;2.70;;;13.30;99.90;;;;;;5071297;28;20047;-91
2023/12/24 03:25:01;;;;;;;3.78;3.58;;;13.20;99.90;;;;;;5072756;28;20039;-90
2023/12/24 03:27:30;;;;;;;2.80;2.70;;;12.80;99.90;;;;;;5074811;28;20075;-93
2023/12/24 03:29:56;;;;;;;3.58;3.38;;;12.60;99.90;;;;;;5072993;28;20039;-88
2023/12/24 03:32:21;;;;;;;3.67;3.47;;;12.60;99.90;;;;;;5076059;28;20142;-93
2023/12/24 03:34:47;;;;;;;3.75;3.55;;;13.00;99.90;;;;;;5077260;27;20044;-93
2023/12/24 03:37:13;;;;;;;3.53;3.33;;;12.80;99.90;;;;;;5072602;28;20610;-90
2023/12/24 03:39:39;;;;;;;3.25;3.05;;;12.60;99.90;;;;;;5074936;28;20047;-92
2023/12/24 03:42:08;;;;;;;3.35;3.15;;;13.30;99.90;;;;;;5076984;28;20679;-89
2023/12/24 03:44:33;;;;;;;3.45;3.25;;;13.10;99.90;;;;;;5072668;28;20075;-93
2023/12/24 03:47:05;;;;;;;3.67;3.47;;;12.80;99.90;;;;;;5089422;28;20070;-94
2023/12/24 03:49:39;;;;;;;3.60;3.40;;;13.00;99.90;;;;;;5073021;28;20043;-95
2023/12/24 03:52:10;;;;;;;3.75;3.55;;;13.00;99.90;;;;;;5072664;28;20040;-92
2023/12/24 03:54:39;;;;;;;3.60;3.40;;;12.80;99.90;;;;;;5089959;28;20046;-91
2023/12/24 03:57:23;;;;;;;2.70;2.60;;;12.60;99.90;;;;;;5076954;28;20039;-94
2023/12/24 03:59:49;;;;;;;3.88;3.67;;;13.40;99.90;;;;;;5092569;28;20647;-92
2023/12/24 04:02:15;;;;;;;3.67;3.47;;;12.80;99.90;;;;;;5094540;28;20054;-92
2023/12/24 04:04:50;;;;;;;3.40;3.20;;;12.80;99.90;;;;;;5072287;28;20040;-94
2023/12/24 04:07:30;;;;;;;3.47;3.28;;;13.40;99.90;;;;;;5073095;28;20093;-96
2023/12/24 04:10:14;;;;;;;3.55;3.35;;;12.70;99.90;;;;;;5075435;28;20043;-93
2023/12/24 04:12:52;;;;;;;3.50;3.30;;;13.40;99.90;;;;;;5074133;28;20054;-89
2023/12/24 04:15:19;;;;;;;3.58;3.38;;;13.20;99.90;;;;;;5071360;28;20044;-92
2023/12/24 04:17:45;;;;;;;2.90;2.80;;;13.30;99.90;;;;;;5073535;28;20118;-92
2023/12/24 04:20:10;;;;;;;3.28;3.10;;;12.70;99.90;;;;;;5073889;28;20071;-92
2023/12/24 04:22:36;;;;;;;2.67;2.58;;;13.60;99.90;;;;;;5078416;28;20040;-93
2023/12/24 04:25:34;;;;;;;3.67;3.47;;;12.80;99.90;;;;;;5076770;28;20047;-96
2023/12/24 04:28:09;;;;;;;3.45;3.25;;;13.50;99.90;;;;;;5024200;28;20515;-93
2023/12/24 04:30:35;;;;;;;3.35;3.17;;;13.00;99.90;;;;;;5007233;28;20148;-92
2023/12/24 04:33:01;;;;;;;3.13;3.03;;;13.20;99.90;;;;;;5068279;28;20765;-92
2023/12/24 04:35:30;;;;;;;3.78;3.58;;;13.30;99.90;;;;;;5077990;28;20046;-89
2023/12/24 04:37:55;;;;;;;3.50;3.30;;;12.80;99.90;;;;;;5078640;28;20437;-89
2023/12/24 04:40:27;;;;;;;3.47;3.28;;;13.60;99.90;;;;;;5077308;28;20120;-94
2023/12/24 04:42:53;;;;;;;3.22;3.10;;;13.70;99.90;;;;;;5096748;28;20036;-94
2023/12/24 04:45:28;;;;;;;3.38;3.20;;;13.70;99.90;;;;;;5077799;28;20038;-94
2023/12/24 04:47:58;;;;;;;3.25;3.10;;;12.80;99.90;;;;;;5078109;28;20043;-92
2023/12/24 04:50:24;;;;;;;3.33;3.15;;;12.90;99.90;;;;;;5078864;28;20035;-92
2023/12/24 04:52:50;;;;;;;3.13;3.00;;;13.50;99.90;;;;;;5079122;28;20049;-93
2023/12/24 04:55:21;;;;;;;3.55;3.35;;;13.70;99.90;;;;;;5077509;28;20054;-90
2023/12/24 04:57:49;;;;;;;3.20;3.08;;;13.40;99.90;;;;;;5075295;28;20046;-93
2023/12/24 05:00:16;;;;;;;3.45;3.25;;;13.80;99.90;;;;;;5073967;28;20131;-91
2023/12/24 05:02:45;;;;;;;3.15;3.05;;;13.70;99.90;;;;;;5091946;28;20042;-94
2023/12/24 05:05:14;;;;;;;3.28;3.15;;;13.00;99.90;;;;;;5073659;28;20051;-94
2023/12/24 05:07:46;;;;;;;3.05;2.95;;;13.10;99.90;;;;;;5076818;28;20075;-94
2023/12/24 05:10:17;;;;;;;3.20;3.08;;;13.70;99.90;;;;;;5077755;28;20052;-95
2023/12/24 05:12:49;;;;;;;3.35;3.17;;;12.90;99.90;;;;;;5075671;28;20059;-93
2023/12/24 05:15:16;;;;;;;3.10;3.00;;;13.00;99.90;;;;;;5076381;28;20520;-94
2023/12/24 05:17:42;;;;;;;3.42;3.25;;;13.60;99.90;;;;;;5071992;27;20050;-93
2023/12/24 05:20:08;;;;;;;3.33;3.17;;;13.90;99.90;;;;;;5091135;28;20036;-88
2023/12/24 05:22:34;;;;;;;3.22;3.10;;;13.70;99.90;;;;;;5076320;28;20054;-90
2023/12/24 05:25:00;;;;;;;3.47;3.28;;;13.30;99.90;;;;;;5075120;28;20036;-91
2023/12/24 05:27:28;;;;;;;3.03;2.92;;;13.60;99.90;;;;;;5077342;28;20047;-90
2023/12/24 05:30:11;;;;;;;3.08;2.97;;;13.80;99.90;;;;;;5074528;28;20040;-94
2023/12/24 05:32:36;;;;;;;3.08;2.97;;;13.10;99.90;;;;;;5088920;28;20079;-93
2023/12/24 05:35:05;;;;;;;2.65;2.55;;;13.70;99.90;;;;;;5074223;28;20059;-94
2023/12/24 05:37:34;;;;;;;3.13;3.03;;;13.30;99.90;;;;;;5065081;28;20063;-88
2023/12/24 05:40:07;;;;;;;3.30;3.17;;;13.20;99.90;;;;;;5089308;28;20067;-96
2023/12/24 05:42:32;;;;;;;3.08;2.97;;;14.10;99.90;;;;;;5059865;28;20044;-92
2023/12/24 05:44:58;;;;;;;3.03;2.92;;;14.20;99.90;;;;;;5076798;28;20043;-92
2023/12/24 05:47:24;;;;;;;3.00;2.90;;;14.10;99.90;;;;;;5076342;28;20116;-93
2023/12/24 05:49:51;;;;;;;3.17;3.05;;;14.20;99.90;;;;;;5076912;27;20052;-90
2023/12/24 05:52:17;;;;;;;3.10;3.00;;;14.20;99.90;;;;;;5090966;28;20058;-92
2023/12/24 05:54:43;;;;;;;3.03;2.92;;;13.30;99.90;;;;;;5078273;28;20040;-92
2023/12/24 05:57:14;;;;;;;2.92;2.83;;;13.30;99.90;;;;;;5078669;28;20408;-92
2023/12/24 05:59:39;;;;;;;3.13;3.03;;;14.20;99.90;;;;;;5075813;28;20063;-94
2023/12/24 06:02:05;;;;;;;2.90;2.80;;;14.30;99.90;;;;;;5077213;28;20040;-94
2023/12/24 06:04:34;;;;;;;3.20;3.08;;;13.30;99.90;;;;;;5074870;28;20162;-91
2023/12/24 06:07:01;;;;;;;2.80;2.70;;;14.00;99.90;;;;;;5075063;28;20114;-92
2023/12/24 06:09:27;;;;;;;2.85;2.75;;;14.30;99.90;;;;;;5075170;28;20048;-92
2023/12/24 06:12:02;;;;;;;3.15;3.05;;;14.40;99.90;;;;;;5077105;28;20136;-94
2023/12/24 06:14:28;;;;;;;2.88;2.78;;;14.30;99.90;;;;;;5074320;28;20400;-91
2023/12/24 06:17:08;;;;;;;3.15;3.05;;;14.40;99.90;;;;;;5075956;28;20043;-95
2023/12/24 06:19:58;;;;;;;2.70;2.60;;;14.00;99.90;;;;;;5078339;28;20126;-95
2023/12/24 06:22:27;;;;;;;2.83;2.72;;;14.20;99.90;;;;;;5075892;28;20039;-90
2023/12/24 06:24:52;;;;;;;3.00;2.90;;;13.80;99.90;;;;;;5074019;28;20131;-89
2023/12/24 06:27:28;;;;;;;2.53;2.42;;;13.90;99.90;;;;;;5074951;27;20493;-94
2023/12/24 06:29:54;;;;;;;3.00;2.90;;;13.90;99.90;;;;;;5075779;28;20047;-93
2023/12/24 06:32:20;;;;;;;2.92;2.83;;;13.70;99.90;;;;;;5076307;28;20508;-92
2023/12/24 06:34:58;;;;;;;2.88;2.78;;;13.60;99.90;;;;;;5077882;28;20043;-96
2023/12/24 06:37:23;;;;;;;2.75;2.65;;;13.30;99.90;;;;;;5075459;28;20116;-93
2023/12/24 06:39:55;;;;;;;2.90;2.80;;;14.60;99.90;;;;;;5093288;28;20412;-94
2023/12/24 06:45:28;;;;;;;3.05;2.95;;;14.40;99.90;;;;;;5108879;27;20040;-92
2023/12/24 06:47:59;;;;;;;2.78;2.67;;;13.60;99.90;;;;;;5072499;28;20036;-92
2023/12/24 06:50:38;;;;;;;2.90;2.80;;;14.30;99.90;;;;;;5079324;28;20040;-96
2023/12/24 06:53:05;;;;;;;2.70;2.60;;;13.90;99.90;;;;;;5074992;27;20059;-91
2023/12/24 06:55:37;;;;;;;2.70;2.60;;;14.50;99.90;;;;;;5075692;28;20047;-96
2023/12/24 06:58:06;;;;;;;2.58;2.47;;;14.30;99.90;;;;;;5076128;28;20150;-96
2023/12/24 07:00:44;;;;;;;2.90;2.78;;;14.40;99.90;;;;;;5075499;28;20108;-96
2023/12/24 07:03:11;;;;;;;2.60;2.50;;;13.40;99.90;;;;;;5077726;28;20047;-91
2023/12/24 07:06:21;;;;;;;2.70;2.60;;;14.70;99.90;;;;;;5092813;28;20481;-94
2023/12/24 07:08:47;;;;;;;2.58;2.47;;;14.20;99.90;;;;;;5076546;28;20044;-91
2023/12/24 07:11:13;;;;;;;2.35;2.25;;;14.80;99.90;;;;;;5079173;28;20040;-93
2023/12/24 07:13:42;;;;;;;2.92;2.80;;;14.80;99.90;;;;;;5077682;28;20036;-93
2023/12/24 07:16:10;;;;;;;2.45;2.35;;;14.30;99.90;;;;;;5078362;28;20058;-92
2023/12/24 07:18:40;;;;;;;3.20;3.05;;;14.10;99.90;;;;;;5070833;28;20119;-93
2023/12/24 07:21:06;;;;;;;2.42;2.33;;;14.60;99.90;;;;;;5077209;28;20043;-95
2023/12/24 07:23:32;;;;;;;3.20;3.00;;;13.90;99.90;;;;;;5092266;28;20051;-90
2023/12/24 07:26:20;;;;;;;2.88;2.78;;;14.60;99.90;;;;;;5073402;28;20040;-92
2023/12/24 07:28:58;;;;;;;2.58;2.47;;;14.60;99.90;;;;;;5081793;28;20039;-94
2023/12/24 07:31:31;;;;;;;2.75;2.65;;;15.00;99.90;;;;;;5074599;28;20048;-94
2023/12/24 07:34:07;;;;;;;2.92;2.83;;;13.80;99.90;;;;;;5077835;28;20039;-91
2023/12/24 07:36:33;;;;;;;2.55;2.45;;;14.70;99.90;;;;;;5074518;28;20040;-95
2023/12/24 07:38:59;;;;;;;2.63;2.53;;;13.80;99.90;;;;;;5075493;28;20439;-91
2023/12/24 07:41:27;;;;;;;2.90;2.78;;;15.00;99.90;;;;;;5090187;28;20043;-95
2023/12/24 07:43:53;;;;;;;2.90;2.78;;;13.80;99.90;;;;;;5072854;28;20058;-93
2023/12/24 07:46:28;;;;;;;3.00;2.88;;;14.90;99.90;;;;;;5073848;28;20044;-96
2023/12/24 07:48:57;;;;;;;2.92;2.83;;;14.90;99.90;;;;;;5073239;28;21344;-94
2023/12/24 07:51:37;;;;;;;2.80;2.70;;;13.80;99.90;;;;;;5074558;28;20039;-96
2023/12/24 07:54:35;;;;;;;2.83;2.72;;;14.80;99.90;;;;;;5078284;28;20062;-94
2023/12/24 07:57:24;;;;;;;3.08;2.88;;;15.00;99.90;;;;;;5079432;28;20047;-93
2023/12/24 08:00:03;;;;;;;2.72;2.63;;;14.40;99.90;;;;;;5048148;28;20401;-93
2023/12/24 08:02:29;;;;;;;2.75;2.65;;;13.80;99.90;;;;;;5076968;28;20039;-95
2023/12/24 08:05:03;;;;;;;2.83;2.72;;;15.20;99.90;;;;;;5077038;28;20188;-94
2023/12/24 08:07:31;;;;;;;3.20;3.08;;;14.90;99.90;;;;;;5078454;28;20104;-96
2023/12/24 08:10:30;;;;;;;3.08;2.88;;;13.80;99.90;;;;;;5073668;28;20096;-96
2023/12/24 08:12:58;;;;;;;2.80;2.70;;;14.20;99.90;;;;;;5054386;28;20051;-93
2023/12/24 08:15:27;;;;;;;2.85;2.75;;;14.50;99.90;;;;;;5078234;28;20040;-95
2023/12/24 08:17:53;;;;;;;2.85;2.72;;;15.30;99.90;;;;;;5079290;28;20519;-92
2023/12/24 08:20:29;;;;;;;2.80;2.70;;;14.80;99.90;;;;;;5075173;28;20039;-95
2023/12/24 08:23:04;;;;;;;2.50;2.40;;;13.90;99.90;;;;;;5076284;28;20040;-96
2023/12/24 08:25:29;;;;;;;3.20;3.00;;;13.90;99.90;;;;;;5076185;28;20035;-90
2023/12/24 08:28:15;;;;;;;2.72;2.63;;;14.20;99.90;;;;;;5072903;28;20113;-92
2023/12/24 08:31:06;;;;;;;2.92;2.72;;;14.40;99.90;;;;;;5065277;28;20067;-96
2023/12/24 08:33:35;;;;;;;2.92;2.83;;;14.20;99.90;;;;;;5074144;28;20046;-94
2023/12/24 08:36:02;;;;;;;2.80;2.70;;;15.20;99.90;;;;;;5088210;28;20043;-92
2023/12/24 08:38:30;;;;;;;2.72;2.63;;;15.00;99.90;;;;;;5093039;28;20047;-91
2023/12/24 08:41:04;;;;;;;2.78;2.65;;;15.50;99.90;;;;;;5071515;28;20119;-92
2023/12/24 08:43:35;;;;;;;3.25;3.05;;;15.50;99.90;;;;;;5077635;28;20065;-93
2023/12/24 08:46:16;;;;;;;2.90;2.75;;;14.00;99.90;;;;;;5077676;28;20132;-96
2023/12/24 08:49:05;;;;;;;3.00;2.80;;;15.30;99.90;;;;;;5079668;28;20040;-93
2023/12/24 08:51:33;;;;;;;2.85;2.75;;;14.70;99.90;;;;;;5040012;28;20059;-91
2023/12/24 08:53:59;;;;;;;2.72;2.60;;;14.50;99.90;;;;;;5074767;28;20115;-92
2023/12/24 08:56:34;;;;;;;2.95;2.78;;;14.10;99.90;;;;;;5074566;28;20751;-96
2023/12/24 08:59:13;;;;;;;2.80;2.67;;;14.30;99.90;;;;;;5072714;28;20051;-94
2023/12/24 09:02:04;;;;;;;2.83;2.70;;;14.40;99.90;;;;;;5072306;28;20058;-96
2023/12/24 09:04:47;;;;;;;2.53;2.42;;;15.60;99.90;;;;;;5057522;28;20407;-88
2023/12/24 09:07:14;;;;;;;2.70;2.60;;;15.60;99.90;;;;;;5069795;28;20080;-93
2023/12/24 09:09:43;;;;;;;2.85;2.67;;;14.40;99.90;;;;;;5070354;28;20055;-94
2023/12/24 09:12:18;;;;;;;2.90;2.72;;;14.90;99.90;;;;;;5078765;28;20051;-96
2023/12/24 09:14:44;;;;;;;3.45;3.25;;;15.70;99.90;;;;;;5076541;28;20075;-91
2023/12/24 09:17:22;;;;;;;2.40;2.30;;;15.20;99.90;;;;;;5093908;27;20039;-94
2023/12/24 09:19:57;;;;;;;2.83;2.67;;;15.70;99.90;;;;;;5078009;28;20122;-92
2023/12/24 09:22:26;;;;;;;2.95;2.75;;;14.30;99.90;;;;;;5072991;28;20043;-92
2023/12/24 09:25:12;;;;;;;2.72;2.63;;;15.80;99.90;;;;;;5079697;28;20047;-95
2023/12/24 09:27:41;;;;;;;3.03;2.83;;;15.80;99.90;;;;;;5090865;28;20127;-90
2023/12/24 09:30:11;;;;;;;3.47;3.28;;;15.00;99.90;;;;;;5080502;28;20122;-94
2023/12/24 09:32:37;;;;;;;2.58;2.47;;;14.30;99.90;;;;;;5077887;28;20396;-93
2023/12/24 09:35:09;;;;;;;3.03;2.83;;;14.90;99.90;;;;;;5078913;28;20043;-96
2023/12/24 09:37:43;;;;;;;2.85;2.72;;;14.60;99.90;;;;;;5076287;28;20105;-94
2023/12/24 09:40:11;;;;;;;3.10;2.90;;;14.80;99.90;;;;;;5077781;28;20051;-95
2023/12/24 09:42:37;;;;;;;2.92;2.72;;;14.30;99.90;;;;;;5075258;28;20050;-91
2023/12/24 09:45:03;;;;;;;3.10;2.90;;;15.50;99.90;;;;;;5073377;28;20130;-90
2023/12/24 09:47:36;;;;;;;3.03;2.83;;;15.60;99.90;;;;;;5073328;28;20035;-92
2023/12/24 09:50:06;;;;;;;3.43;3.23;;;15.20;99.90;;;;;;5078210;28;20035;-95
2023/12/24 09:52:58;;;;;;;3.22;3.03;;;15.30;99.90;;;;;;5077889;28;20134;-96
2023/12/24 09:55:27;;;;;;;2.65;2.55;;;14.30;99.90;;;;;;5061379;28;20047;-96
2023/12/24 09:57:56;;;;;;;2.80;2.67;;;14.80;99.90;;;;;;5093760;28;20072;-93
2023/12/24 10:00:44;;;;;;;2.72;2.63;;;15.90;99.90;;;;;;5077237;28;20051;-93
2023/12/24 10:03:22;;;;;;;3.45;3.25;;;14.90;99.90;;;;;;5049923;27;20047;-93
2023/12/24 10:06:11;;;;;;;3.10;2.90;;;15.00;99.90;;;;;;5075975;28;20117;-91
2023/12/24 10:08:56;;;;;;;3.20;3.00;;;14.80;99.90;;;;;;5062448;28;20048;-95
2023/12/24 10:11:39;;;;;;;3.10;2.90;;;14.50;99.90;;;;;;5074804;28;20393;-95
2023/12/24 10:14:05;;;;;;;3.28;3.08;;;15.60;99.90;;;;;;5074042;28;20090;-92
2023/12/24 10:16:46;;;;;;;3.53;3.33;;;14.40;99.90;;;;;;5076149;28;20511;-91
2023/12/24 10:19:44;;;;;;;3.30;3.10;;;16.00;99.90;;;;;;5074911;28;20031;-93
2023/12/24 10:22:11;;;;;;;3.08;2.88;;;14.70;99.90;;;;;;5042522;28;20055;-91
2023/12/24 10:24:38;;;;;;;2.70;2.60;;;16.10;99.90;;;;;;5075095;28;20043;-93
2023/12/24 10:27:10;;;;;;;3.10;2.90;;;14.70;99.90;;;;;;5089177;28;20512;-93
2023/12/24 10:29:46;;;;;;;3.17;2.97;;;16.10;99.90;;;;;;5089379;28;20104;-96
2023/12/24 10:32:13;;;;;;;3.13;2.92;;;15.90;99.90;;;;;;5074865;28;20763;-95
2023/12/24 10:34:47;;;;;;;2.80;2.63;;;15.90;99.90;;;;;;5076457;28;20046;-92
2023/12/24 10:37:29;;;;;;;3.35;3.15;;;16.00;99.90;;;;;;5073836;28;20055;-94
2023/12/24 10:40:26;;;;;;;3.30;3.10;;;15.60;99.90;;;;;;5090048;28;20048;-94
2023/12/24 10:42:52;;;;;;;3.28;3.08;;;15.10;99.90;;;;;;5088467;28;20051;-93
2023/12/24 10:45:20;;;;;;;3.00;2.80;;;16.00;99.90;;;;;;5089986;28;20046;-93
2023/12/24 10:47:46;;;;;;;3.45;3.25;;;14.60;99.90;;;;;;5072107;28;20044;-89
2023/12/24 10:50:13;;;;;;;3.42;3.22;;;14.60;99.90;;;;;;5069927;28;20048;-93
2023/12/24 10:52:44;;;;;;;3.03;2.83;;;16.10;99.90;;;;;;5068475;28;20051;-96
2023/12/24 10:55:10;;;;;;;3.20;3.00;;;15.70;99.90;;;;;;5074248;28;20040;-92
2023/12/24 10:58:11;;;;;;;3.03;2.83;;;15.50;99.90;;;;;;5070449;28;20050;-92
2023/12/24 11:00:37;;;;;;;2.90;2.70;;;15.90;99.90;;;;;;5074741;28;20046;-95
2023/12/24 11:04:02;;;;;;;;;;;;;;;;;;;;;
2023/12/24 11:06:41;;;;;;;2.80;2.65;;;14.80;99.90;;;;;;5026084;28;20111;-94
2023/12/24 11:09:21;;;;;;;3.05;2.85;;;15.60;99.90;;;;;;5021631;28;20144;-96
2023/12/24 11:12:12;;;;;;;3.20;3.00;;;15.40;99.90;;;;;;5080014;28;20043;-95
2023/12/24 11:15:08;;;;;;;3.25;3.05;;;16.30;99.90;;;;;;5078558;27;20050;-89
2023/12/24 11:17:37;;;;;;;2.80;2.65;;;15.50;99.90;;;;;;5063404;28;20052;-95
2023/12/24 11:20:25;;;;;;;2.85;2.70;;;16.20;99.90;;;;;;5074755;27;20043;-94
2023/12/24 11:23:10;;;;;;;2.95;2.75;;;15.80;99.90;;;;;;5077481;28;20047;-94
2023/12/24 11:25:59;;;;;;;2.97;2.80;;;16.10;99.90;;;;;;5079816;28;20047;-94
2023/12/24 11:28:54;;;;;;;3.20;3.00;;;15.90;99.90;;;;;;5078033;28;20040;-96
2023/12/24 11:31:51;;;;;;;3.00;2.80;;;15.80;99.90;;;;;;5074525;28;20045;-95
2023/12/24 11:34:48;;;;;;;3.50;3.30;;;15.50;99.90;;;;;;5075295;28;20133;-93
2023/12/24 11:37:39;;;;;;;2.92;2.72;;;16.10;99.90;;;;;;5077780;28;20039;-94
2023/12/24 11:40:18;;;;;;;3.05;2.85;;;15.20;99.90;;;;;;5073529;28;20392;-94
2023/12/24 11:43:02;;;;;;;;;;;;;;;;;;;;;
2023/12/24 11:45:56;;;;;;;3.42;3.22;;;16.30;99.90;;;;;;5092572;28;20527;-95
2023/12/24 11:48:29;;;;;;;3.70;3.50;;;16.00;99.90;;;;;;5067281;28;20130;-93
2023/12/24 11:51:13;;;;;;;3.38;3.17;;;15.30;99.90;;;;;;5073503;28;20439;-90
2023/12/24 11:53:40;;;;;;;3.42;3.22;;;16.30;99.90;;;;;;5089642;28;20071;-93
2023/12/24 11:56:10;;;;;;;3.17;2.97;;;15.30;99.90;;;;;;5074148;28;20114;-93
2023/12/24 11:58:58;;;;;;;3.25;3.05;;;15.30;99.90;;;;;;5091873;28;20047;-86
2023/12/24 12:01:26;;;;;;;3.22;3.03;;;15.90;99.90;;;;;;5091307;28;20086;-93
2023/12/24 12:04:05;;;;;;;3.08;2.88;;;15.90;99.90;;;;;;5086285;28;20043;-94
2023/12/24 12:06:38;;;;;;;3.35;3.15;;;16.00;99.90;;;;;;5069386;28;20040;-90
2023/12/24 12:09:06;;;;;;;3.10;2.90;;;15.50;99.90;;;;;;5071243;28;20075;-90
2023/12/24 12:11:37;;;;;;;3.13;2.92;;;15.80;99.90;;;;;;5073373;28;20103;-91
2023/12/24 12:14:11;;;;;;;3.53;3.33;;;16.10;99.90;;;;;;5086137;28;20067;-96
2023/12/24 12:17:15;;;;;;;3.22;3.03;;;15.30;99.90;;;;;;5071098;28;20534;-94
2023/12/24 12:19:47;;;;;;;3.17;2.97;;;15.40;99.90;;;;;;5085075;28;20111;-90
2023/12/24 12:22:13;;;;;;;3.33;3.13;;;16.00;99.90;;;;;;5074919;28;20520;-91
2023/12/24 12:24:45;;;;;;;3.60;3.40;;;15.80;99.90;;;;;;5073109;28;20043;-91
2023/12/24 12:27:11;;;;;;;3.53;3.33;;;16.10;99.90;;;;;;5092098;28;20042;-87
2023/12/24 12:29:36;;;;;;;3.45;3.25;;;16.30;99.90;;;;;;5089147;28;20036;-93
2023/12/24 12:32:17;;;;;;;3.13;2.92;;;15.50;99.90;;;;;;5074035;28;20485;-95
2023/12/24 12:35:01;;;;;;;3.42;3.22;;;15.90;99.90;;;;;;5090152;28;20052;-96
2023/12/24 12:37:32;;;;;;;3.45;3.25;;;16.30;99.90;;;;;;5073761;28;20093;-92
2023/12/24 12:42:49;;;;;;;3.28;3.08;;;15.60;99.90;;;;;;5090361;28;20111;-92
2023/12/24 12:45:17;;;;;;;3.50;3.30;;;16.40;99.90;;;;;;5072102;28;20548;-93
2023/12/24 12:47:43;;;;;;;3.30;3.10;;;15.90;99.90;;;;;;5075693;28;20769;-94
2023/12/24 12:50:12;;;;;;;3.25;3.05;;;16.20;99.90;;;;;;5075270;28;20048;-93
2023/12/24 12:52:38;;;;;;;2.72;2.58;;;15.70;99.90;;;;;;5074879;28;20051;-92
2023/12/24 12:55:11;;;;;;;3.10;2.90;;;16.50;99.90;;;;;;5079755;28;20043;-94
2023/12/24 12:57:37;;;;;;;3.08;2.88;;;16.20;99.90;;;;;;5075470;28;20142;-92
2023/12/24 13:00:10;;;;;;;3.28;3.08;;;15.60;99.90;;;;;;5074252;28;20139;-91
2023/12/24 13:02:51;;;;;;;3.40;3.20;;;15.50;99.90;;;;;;5075882;28;20044;-91
2023/12/24 13:05:27;;;;;;;3.00;2.80;;;15.50;99.90;;;;;;5070262;28;20043;-90
2023/12/24 13:07:54;;;;;;;3.45;3.25;;;16.30;99.90;;;;;;5092394;28;20052;-92
2023/12/24 13:10:32;;;;;;;3.13;2.92;;;16.00;99.90;;;;;;5072936;28;20070;-92
2023/12/24 13:13:32;;;;;;;3.22;3.03;;;15.70;99.90;;;;;;5088946;28;20071;-90
2023/12/24 13:16:24;;;;;;;3.47;3.28;;;15.90;99.90;;;;;;5061770;28;20063;-94
2023/12/24 13:18:50;;;;;;;3.42;3.22;;;15.60;99.90;;;;;;5072656;28;20072;-89
2023/12/24 13:21:19;;;;;;;3.13;2.92;;;16.00;99.90;;;;;;5091818;28;20036;-90